CCA119 ZHHH-VMMC
Flight info
| Callsign | CCA119 |
|---|---|
| Flight time | 1h 29m |
| Altitude | 35100 |
| Route | OLMIB5E OLMIB W37 PEXID/K0832S1100 W37 OMBEB/K0828S1070 R473 NNX/K0835S1100 R473 NOLON W90 POU |
| Aircraft | A320/M-SDE3FGHIRWY/LB1 |
Departure
| Time | 2026-04-28 02:13 |
|---|---|
| Airport | Wuhan Tianhe International Airport (ZHHH) |
Arrival
| Time | 2026-04-28 03:42 |
|---|---|
| Airport | Macau International Airport (VMMC) |
| Time | Latitude | Longitude | Altitude | Speed | Heading |
|---|---|---|---|---|---|
| 2026-04-28 01:34 | 30.77531 | 114.21611 | 109 ft | 0 kts | 221° |
| 2026-04-28 02:00 | 30.77538 | 114.21618 | 108 ft | 4 kts | 221° |
| 2026-04-28 02:00 | 30.77558 | 114.21639 | 106 ft | 4 kts | 221° |
| 2026-04-28 02:00 | 30.77577 | 114.21659 | 106 ft | 2 kts | 221° |
| 2026-04-28 02:01 | 30.77596 | 114.21673 | 107 ft | 4 kts | 185° |
| 2026-04-28 02:01 | 30.77618 | 114.21665 | 107 ft | 4 kts | 135° |
| 2026-04-28 02:01 | 30.77632 | 114.21647 | 108 ft | 0 kts | 131° |
| 2026-04-28 02:04 | 30.77630 | 114.21649 | 107 ft | 3 kts | 131° |
| 2026-04-28 02:04 | 30.77600 | 114.21690 | 106 ft | 7 kts | 131° |
| 2026-04-28 02:04 | 30.77568 | 114.21732 | 108 ft | 7 kts | 131° |
| 2026-04-28 02:05 | 30.77535 | 114.21774 | 107 ft | 7 kts | 131° |
| 2026-04-28 02:05 | 30.77487 | 114.21838 | 107 ft | 11 kts | 131° |
| 2026-04-28 02:05 | 30.77442 | 114.21898 | 108 ft | 9 kts | 131° |
| 2026-04-28 02:05 | 30.77403 | 114.21949 | 107 ft | 8 kts | 131° |
| 2026-04-28 02:06 | 30.77362 | 114.22003 | 106 ft | 9 kts | 131° |
| 2026-04-28 02:06 | 30.77310 | 114.22072 | 107 ft | 14 kts | 131° |
| 2026-04-28 02:06 | 30.77247 | 114.22150 | 106 ft | 12 kts | 145° |
| 2026-04-28 02:06 | 30.77180 | 114.22126 | 107 ft | 11 kts | 221° |
| 2026-04-28 02:07 | 30.77128 | 114.22072 | 107 ft | 10 kts | 221° |
| 2026-04-28 02:07 | 30.77074 | 114.22017 | 107 ft | 11 kts | 221° |
| 2026-04-28 02:07 | 30.77018 | 114.21959 | 107 ft | 11 kts | 221° |
| 2026-04-28 02:07 | 30.76949 | 114.21888 | 108 ft | 14 kts | 221° |
| 2026-04-28 02:08 | 30.76864 | 114.21801 | 108 ft | 20 kts | 221° |
| 2026-04-28 02:08 | 30.76754 | 114.21689 | 106 ft | 20 kts | 221° |
| 2026-04-28 02:08 | 30.76653 | 114.21585 | 107 ft | 18 kts | 221° |
| 2026-04-28 02:08 | 30.76556 | 114.21486 | 107 ft | 20 kts | 221° |
| 2026-04-28 02:09 | 30.76451 | 114.21379 | 107 ft | 20 kts | 221° |
| 2026-04-28 02:09 | 30.76331 | 114.21256 | 107 ft | 25 kts | 221° |
| 2026-04-28 02:09 | 30.76203 | 114.21124 | 108 ft | 24 kts | 221° |
| 2026-04-28 02:09 | 30.76085 | 114.21004 | 108 ft | 22 kts | 221° |
| 2026-04-28 02:10 | 30.75984 | 114.20901 | 108 ft | 13 kts | 220° |
| 2026-04-28 02:10 | 30.75919 | 114.20894 | 108 ft | 8 kts | 142° |
| 2026-04-28 02:10 | 30.75886 | 114.20936 | 108 ft | 6 kts | 131° |
| 2026-04-28 02:10 | 30.75864 | 114.20965 | 108 ft | 3 kts | 131° |
| 2026-04-28 02:11 | 30.75855 | 114.20976 | 106 ft | 1 kts | 132° |
| 2026-04-28 02:11 | 30.75847 | 114.20987 | 108 ft | 2 kts | 132° |
| 2026-04-28 02:11 | 30.75820 | 114.21021 | 107 ft | 10 kts | 131° |
| 2026-04-28 02:11 | 30.75798 | 114.21097 | 109 ft | 10 kts | 74° |
| 2026-04-28 02:12 | 30.75834 | 114.21148 | 123 ft | 7 kts | 41° |
| 2026-04-28 02:12 | 30.75926 | 114.21243 | 109 ft | 45 kts | 41° |
| 2026-04-28 02:12 | 30.76330 | 114.21655 | 107 ft | 106 kts | 41° |
| 2026-04-28 02:12 | 30.77001 | 114.22341 | 109 ft | 149 kts | 41° |
| 2026-04-28 02:13 | 30.77842 | 114.23200 | 509 ft | 162 kts | 40° |
| 2026-04-28 02:13 | 30.78658 | 114.24090 | 1257 ft | 161 kts | 51° |
| 2026-04-28 02:13 | 30.79305 | 114.25207 | 1774 ft | 176 kts | 54° |
| 2026-04-28 02:13 | 30.80006 | 114.26486 | 2126 ft | 197 kts | 57° |
| 2026-04-28 02:14 | 30.80752 | 114.27853 | 2882 ft | 202 kts | 58° |
| 2026-04-28 02:14 | 30.81519 | 114.29249 | 3673 ft | 207 kts | 58° |
| 2026-04-28 02:14 | 30.82282 | 114.30687 | 4525 ft | 210 kts | 64° |
| 2026-04-28 02:14 | 30.82657 | 114.32344 | 5333 ft | 216 kts | 87° |
| 2026-04-28 02:15 | 30.81552 | 114.35645 | 6949 ft | 234 kts | 128° |
| 2026-04-28 02:15 | 30.80455 | 114.37065 | 7770 ft | 237 kts | 129° |
| 2026-04-28 02:15 | 30.79345 | 114.38501 | 8592 ft | 240 kts | 130° |
| 2026-04-28 02:16 | 30.78233 | 114.39942 | 9369 ft | 245 kts | 131° |
| 2026-04-28 02:16 | 30.77080 | 114.41439 | 10085 ft | 251 kts | 132° |
| 2026-04-28 02:16 | 30.75902 | 114.42960 | 10784 ft | 256 kts | 136° |
| 2026-04-28 02:16 | 30.74432 | 114.44101 | 11470 ft | 257 kts | 165° |
| 2026-04-28 02:17 | 30.72660 | 114.44248 | 12016 ft | 265 kts | 193° |
| 2026-04-28 02:17 | 30.70973 | 114.43263 | 12270 ft | 284 kts | 220° |
| 2026-04-28 02:17 | 30.69423 | 114.41684 | 12481 ft | 308 kts | 222° |
| 2026-04-28 02:17 | 30.67771 | 114.39975 | 12789 ft | 325 kts | 222° |
| 2026-04-28 02:18 | 30.66058 | 114.38210 | 13455 ft | 331 kts | 222° |
| 2026-04-28 02:18 | 30.64328 | 114.36437 | 14183 ft | 332 kts | 222° |
| 2026-04-28 02:18 | 30.62590 | 114.34663 | 14855 ft | 333 kts | 222° |
| 2026-04-28 02:18 | 30.60841 | 114.32882 | 15489 ft | 335 kts | 222° |
| 2026-04-28 02:19 | 30.59086 | 114.31098 | 16129 ft | 336 kts | 223° |
| 2026-04-28 02:19 | 30.57311 | 114.29300 | 16768 ft | 338 kts | 223° |
| 2026-04-28 02:19 | 30.55557 | 114.27524 | 17392 ft | 340 kts | 223° |
| 2026-04-28 02:19 | 30.53769 | 114.25713 | 18027 ft | 342 kts | 223° |
| 2026-04-28 02:20 | 30.51973 | 114.23894 | 18569 ft | 345 kts | 223° |
| 2026-04-28 02:20 | 30.50153 | 114.22052 | 19010 ft | 350 kts | 223° |
| 2026-04-28 02:20 | 30.48281 | 114.20160 | 19516 ft | 353 kts | 223° |
| 2026-04-28 02:20 | 30.46451 | 114.18308 | 20027 ft | 356 kts | 223° |
| 2026-04-28 02:21 | 30.44579 | 114.16418 | 20550 ft | 358 kts | 223° |
| 2026-04-28 02:21 | 30.42702 | 114.14515 | 21060 ft | 360 kts | 223° |
| 2026-04-28 02:21 | 30.40821 | 114.12575 | 21565 ft | 363 kts | 223° |
| 2026-04-28 02:21 | 30.38938 | 114.10615 | 22046 ft | 365 kts | 223° |
| 2026-04-28 02:22 | 30.37017 | 114.08613 | 22545 ft | 368 kts | 223° |
| 2026-04-28 02:22 | 30.35107 | 114.06626 | 23040 ft | 370 kts | 224° |
| 2026-04-28 02:22 | 30.33195 | 114.04639 | 23446 ft | 375 kts | 223° |
| 2026-04-28 02:22 | 30.31240 | 114.02627 | 23852 ft | 378 kts | 221° |
| 2026-04-28 02:23 | 30.29056 | 114.00896 | 24206 ft | 384 kts | 210° |
| 2026-04-28 02:23 | 30.26625 | 113.99559 | 24578 ft | 388 kts | 207° |
| 2026-04-28 02:23 | 30.24165 | 113.98253 | 24978 ft | 390 kts | 207° |
| 2026-04-28 02:23 | 30.22500 | 113.97364 | 25250 ft | 391 kts | 208° |
| 2026-04-28 02:24 | 30.20024 | 113.96035 | 25647 ft | 393 kts | 208° |
| 2026-04-28 02:24 | 30.17535 | 113.94697 | 26040 ft | 395 kts | 208° |
| 2026-04-28 02:24 | 30.15028 | 113.93349 | 26429 ft | 398 kts | 208° |
| 2026-04-28 02:24 | 30.12512 | 113.91998 | 26826 ft | 400 kts | 208° |
| 2026-04-28 02:25 | 30.09979 | 113.90642 | 27211 ft | 402 kts | 208° |
| 2026-04-28 02:25 | 30.07433 | 113.89281 | 27602 ft | 404 kts | 208° |
| 2026-04-28 02:25 | 30.04875 | 113.87914 | 27950 ft | 407 kts | 209° |
| 2026-04-28 02:25 | 30.02294 | 113.86536 | 28322 ft | 409 kts | 209° |
| 2026-04-28 02:26 | 29.99735 | 113.85174 | 28702 ft | 411 kts | 209° |
| 2026-04-28 02:26 | 29.97127 | 113.83786 | 29089 ft | 414 kts | 209° |
| 2026-04-28 02:26 | 29.94505 | 113.82392 | 29483 ft | 416 kts | 209° |
| 2026-04-28 02:26 | 29.91869 | 113.80990 | 29872 ft | 418 kts | 210° |
| 2026-04-28 02:27 | 29.89204 | 113.79605 | 30227 ft | 422 kts | 206° |
| 2026-04-28 02:27 | 29.86369 | 113.78615 | 30556 ft | 431 kts | 197° |
| 2026-04-28 02:27 | 29.83362 | 113.78193 | 30881 ft | 439 kts | 189° |
| 2026-04-28 02:27 | 29.80301 | 113.77990 | 31195 ft | 441 kts | 189° |
| 2026-04-28 02:28 | 29.77232 | 113.77787 | 31534 ft | 442 kts | 189° |
| 2026-04-28 02:28 | 29.74148 | 113.77576 | 31862 ft | 444 kts | 189° |
| 2026-04-28 02:28 | 29.71060 | 113.77358 | 32231 ft | 444 kts | 189° |
| 2026-04-28 02:28 | 29.68023 | 113.77142 | 32702 ft | 442 kts | 190° |
| 2026-04-28 02:29 | 29.64956 | 113.76927 | 33182 ft | 441 kts | 190° |
| 2026-04-28 02:29 | 29.61902 | 113.76712 | 33648 ft | 439 kts | 190° |
| 2026-04-28 02:29 | 29.58850 | 113.76498 | 34109 ft | 438 kts | 190° |
| 2026-04-28 02:29 | 29.55812 | 113.76287 | 34509 ft | 436 kts | 191° |
| 2026-04-28 02:30 | 29.52788 | 113.76080 | 34903 ft | 435 kts | 191° |
| 2026-04-28 02:30 | 29.49766 | 113.75872 | 35027 ft | 434 kts | 191° |
| 2026-04-28 02:30 | 29.46790 | 113.75673 | 35058 ft | 423 kts | 191° |
| 2026-04-28 02:31 | 29.40969 | 113.75276 | 35052 ft | 417 kts | 191° |
| 2026-04-28 02:31 | 29.35188 | 113.74864 | 35056 ft | 414 kts | 191° |
| 2026-04-28 02:32 | 29.29442 | 113.74460 | 35036 ft | 414 kts | 191° |
| 2026-04-28 02:32 | 29.23696 | 113.74065 | 35047 ft | 414 kts | 190° |
| 2026-04-28 02:33 | 29.17933 | 113.74024 | 35049 ft | 419 kts | 186° |
| 2026-04-28 02:33 | 29.12093 | 113.74295 | 35049 ft | 420 kts | 185° |
| 2026-04-28 02:34 | 29.06250 | 113.74566 | 35048 ft | 420 kts | 186° |
| 2026-04-28 02:34 | 29.00415 | 113.74759 | 35052 ft | 419 kts | 186° |
| 2026-04-28 02:35 | 28.94573 | 113.74906 | 35047 ft | 419 kts | 187° |
| 2026-04-28 02:35 | 28.88760 | 113.75068 | 35037 ft | 416 kts | 186° |
| 2026-04-28 02:36 | 28.82938 | 113.75235 | 35044 ft | 420 kts | 186° |
| 2026-04-28 02:36 | 28.77089 | 113.75401 | 35023 ft | 421 kts | 186° |
| 2026-04-28 02:37 | 28.71237 | 113.75314 | 35040 ft | 419 kts | 192° |
| 2026-04-28 02:37 | 28.65452 | 113.74881 | 35047 ft | 416 kts | 191° |
| 2026-04-28 02:38 | 28.59707 | 113.74467 | 35043 ft | 415 kts | 191° |
| 2026-04-28 02:38 | 28.53931 | 113.74044 | 35039 ft | 416 kts | 191° |
| 2026-04-28 02:39 | 28.48143 | 113.73614 | 35037 ft | 418 kts | 191° |
| 2026-04-28 02:39 | 28.42329 | 113.73190 | 35037 ft | 419 kts | 191° |
| 2026-04-28 02:40 | 28.36508 | 113.72763 | 35034 ft | 421 kts | 191° |
| 2026-04-28 02:40 | 28.30530 | 113.72315 | 35038 ft | 438 kts | 191° |
| 2026-04-28 02:41 | 28.24313 | 113.71857 | 35035 ft | 455 kts | 191° |
| 2026-04-28 02:41 | 28.17943 | 113.71396 | 35032 ft | 460 kts | 190° |
| 2026-04-28 02:42 | 28.11542 | 113.70934 | 35029 ft | 461 kts | 191° |
| 2026-04-28 02:42 | 28.05154 | 113.70400 | 35030 ft | 460 kts | 191° |
| 2026-04-28 02:43 | 27.98770 | 113.69820 | 35030 ft | 460 kts | 191° |
| 2026-04-28 02:43 | 27.92377 | 113.69225 | 35038 ft | 461 kts | 191° |
| 2026-04-28 02:44 | 27.85990 | 113.68647 | 35047 ft | 460 kts | 191° |
| 2026-04-28 02:44 | 27.79609 | 113.68088 | 35051 ft | 460 kts | 191° |
| 2026-04-28 02:45 | 27.73241 | 113.67528 | 35049 ft | 459 kts | 191° |
| 2026-04-28 02:45 | 27.66877 | 113.66962 | 35035 ft | 459 kts | 190° |
| 2026-04-28 02:46 | 27.60490 | 113.66500 | 35036 ft | 461 kts | 188° |
| 2026-04-28 02:46 | 27.54077 | 113.66374 | 35039 ft | 463 kts | 186° |
| 2026-04-28 02:47 | 27.47623 | 113.66339 | 35041 ft | 464 kts | 186° |
| 2026-04-28 02:47 | 27.41179 | 113.66241 | 35009 ft | 462 kts | 187° |
| 2026-04-28 02:48 | 27.34748 | 113.66090 | 35013 ft | 463 kts | 187° |
| 2026-04-28 02:48 | 27.28289 | 113.65930 | 35030 ft | 464 kts | 187° |
| 2026-04-28 02:49 | 27.21866 | 113.65778 | 35038 ft | 464 kts | 187° |
| 2026-04-28 02:49 | 27.15392 | 113.66422 | 35032 ft | 477 kts | 171° |
| 2026-04-28 02:50 | 27.08974 | 113.68333 | 35029 ft | 477 kts | 171° |
| 2026-04-28 02:50 | 27.02555 | 113.70244 | 35038 ft | 477 kts | 171° |
| 2026-04-28 02:51 | 26.96135 | 113.72142 | 35035 ft | 477 kts | 171° |
| 2026-04-28 02:51 | 26.89720 | 113.74029 | 35036 ft | 477 kts | 171° |
| 2026-04-28 02:52 | 26.83299 | 113.75913 | 35006 ft | 477 kts | 170° |
| 2026-04-28 02:52 | 26.76876 | 113.77797 | 35008 ft | 478 kts | 170° |
| 2026-04-28 02:53 | 26.70441 | 113.79712 | 35012 ft | 479 kts | 169° |
| 2026-04-28 02:53 | 26.64050 | 113.81721 | 35026 ft | 480 kts | 169° |
| 2026-04-28 02:54 | 26.57619 | 113.83772 | 35031 ft | 480 kts | 169° |
| 2026-04-28 02:54 | 26.51192 | 113.85800 | 35026 ft | 480 kts | 169° |
| 2026-04-28 02:55 | 26.44741 | 113.87757 | 35038 ft | 480 kts | 170° |
| 2026-04-28 02:55 | 26.38264 | 113.89596 | 35038 ft | 479 kts | 171° |
| 2026-04-28 02:56 | 26.31793 | 113.91418 | 35054 ft | 480 kts | 171° |
| 2026-04-28 02:56 | 26.25321 | 113.93282 | 35056 ft | 480 kts | 170° |
| 2026-04-28 02:57 | 26.18849 | 113.95160 | 35057 ft | 480 kts | 170° |
| 2026-04-28 02:57 | 26.12376 | 113.97028 | 35060 ft | 480 kts | 170° |
| 2026-04-28 02:58 | 26.05940 | 113.98881 | 35064 ft | 480 kts | 170° |
| 2026-04-28 02:58 | 25.99456 | 114.00747 | 35063 ft | 480 kts | 170° |
| 2026-04-28 02:59 | 25.92998 | 114.02663 | 35051 ft | 480 kts | 169° |
| 2026-04-28 02:59 | 25.86540 | 114.04602 | 35059 ft | 480 kts | 169° |
| 2026-04-28 03:00 | 25.80089 | 114.06529 | 35064 ft | 480 kts | 169° |
| 2026-04-28 03:00 | 25.73639 | 114.08439 | 35071 ft | 479 kts | 169° |
| 2026-04-28 03:01 | 25.67189 | 114.10345 | 35060 ft | 479 kts | 169° |
| 2026-04-28 03:01 | 25.60751 | 114.12250 | 35068 ft | 478 kts | 169° |
| 2026-04-28 03:02 | 25.54325 | 114.14154 | 35063 ft | 478 kts | 169° |
| 2026-04-28 03:02 | 25.47901 | 114.16050 | 35061 ft | 477 kts | 169° |
| 2026-04-28 03:03 | 25.41481 | 114.17939 | 35061 ft | 477 kts | 169° |
| 2026-04-28 03:03 | 25.35062 | 114.19822 | 35054 ft | 477 kts | 169° |
| 2026-04-28 03:04 | 25.28655 | 114.21705 | 35060 ft | 476 kts | 169° |
| 2026-04-28 03:04 | 25.23334 | 114.23277 | 35060 ft | 476 kts | 169° |
| 2026-04-28 03:05 | 25.16934 | 114.25159 | 35058 ft | 476 kts | 169° |
| 2026-04-28 03:05 | 25.10504 | 114.26743 | 35052 ft | 469 kts | 180° |
| 2026-04-28 03:06 | 25.04114 | 114.26164 | 35038 ft | 459 kts | 195° |
| 2026-04-28 03:06 | 24.97849 | 114.24778 | 35043 ft | 459 kts | 195° |
| 2026-04-28 03:07 | 24.91566 | 114.23413 | 35050 ft | 460 kts | 195° |
| 2026-04-28 03:07 | 24.85291 | 114.22051 | 35056 ft | 460 kts | 195° |
| 2026-04-28 03:08 | 24.79004 | 114.20693 | 35046 ft | 459 kts | 195° |
| 2026-04-28 03:08 | 24.72732 | 114.19331 | 35048 ft | 459 kts | 195° |
| 2026-04-28 03:09 | 24.66465 | 114.17967 | 35055 ft | 459 kts | 195° |
| 2026-04-28 03:09 | 24.60241 | 114.16615 | 35058 ft | 459 kts | 195° |
| 2026-04-28 03:10 | 24.53970 | 114.15261 | 35065 ft | 459 kts | 195° |
| 2026-04-28 03:10 | 24.47698 | 114.13901 | 35059 ft | 459 kts | 195° |
| 2026-04-28 03:11 | 24.41430 | 114.12548 | 35066 ft | 459 kts | 195° |
| 2026-04-28 03:11 | 24.35226 | 114.10959 | 35066 ft | 454 kts | 204° |
| 2026-04-28 03:12 | 24.29730 | 114.07694 | 35068 ft | 449 kts | 214° |
| 2026-04-28 03:12 | 24.24397 | 114.04121 | 35056 ft | 449 kts | 214° |
| 2026-04-28 03:13 | 24.19137 | 114.00441 | 35057 ft | 448 kts | 215° |
| 2026-04-28 03:13 | 24.13891 | 113.96750 | 35060 ft | 448 kts | 215° |
| 2026-04-28 03:14 | 24.08928 | 113.92752 | 35060 ft | 445 kts | 224° |
| 2026-04-28 03:14 | 24.04321 | 113.88224 | 35056 ft | 445 kts | 224° |
| 2026-04-28 03:15 | 23.99710 | 113.83688 | 35053 ft | 445 kts | 224° |
| 2026-04-28 03:15 | 23.95103 | 113.79167 | 35058 ft | 444 kts | 224° |
| 2026-04-28 03:16 | 23.90505 | 113.74663 | 34696 ft | 441 kts | 224° |
| 2026-04-28 03:16 | 23.88240 | 113.72440 | 34317 ft | 435 kts | 224° |
| 2026-04-28 03:16 | 23.85999 | 113.70242 | 33844 ft | 431 kts | 223° |
| 2026-04-28 03:16 | 23.83775 | 113.68064 | 33325 ft | 427 kts | 223° |
| 2026-04-28 03:17 | 23.81571 | 113.65907 | 32845 ft | 423 kts | 223° |
| 2026-04-28 03:17 | 23.77217 | 113.61647 | 31858 ft | 417 kts | 223° |
| 2026-04-28 03:17 | 23.75096 | 113.59569 | 31385 ft | 413 kts | 223° |
| 2026-04-28 03:18 | 23.72966 | 113.57485 | 30894 ft | 410 kts | 223° |
| 2026-04-28 03:18 | 23.70850 | 113.55414 | 30428 ft | 406 kts | 223° |
| 2026-04-28 03:18 | 23.68757 | 113.53367 | 29950 ft | 403 kts | 223° |
| 2026-04-28 03:18 | 23.66682 | 113.51339 | 29445 ft | 399 kts | 223° |
| 2026-04-28 03:19 | 23.64628 | 113.49335 | 28997 ft | 394 kts | 223° |
| 2026-04-28 03:19 | 23.62596 | 113.47355 | 28548 ft | 389 kts | 223° |
| 2026-04-28 03:19 | 23.60587 | 113.45399 | 28121 ft | 385 kts | 223° |
| 2026-04-28 03:19 | 23.58594 | 113.43459 | 27694 ft | 382 kts | 223° |
| 2026-04-28 03:20 | 23.56624 | 113.41540 | 27300 ft | 378 kts | 223° |
| 2026-04-28 03:20 | 23.54649 | 113.39675 | 26898 ft | 375 kts | 218° |
| 2026-04-28 03:20 | 23.52423 | 113.38177 | 26485 ft | 376 kts | 207° |
| 2026-04-28 03:20 | 23.49991 | 113.37150 | 26051 ft | 376 kts | 201° |
| 2026-04-28 03:21 | 23.47520 | 113.36217 | 25622 ft | 375 kts | 201° |
| 2026-04-28 03:21 | 23.45062 | 113.35285 | 25173 ft | 374 kts | 201° |
| 2026-04-28 03:21 | 23.42610 | 113.34352 | 24725 ft | 373 kts | 202° |
| 2026-04-28 03:21 | 23.40160 | 113.33416 | 24268 ft | 372 kts | 202° |
| 2026-04-28 03:22 | 23.37717 | 113.32485 | 23797 ft | 372 kts | 202° |
| 2026-04-28 03:22 | 23.35276 | 113.31554 | 23301 ft | 372 kts | 202° |
| 2026-04-28 03:22 | 23.32803 | 113.30613 | 22792 ft | 370 kts | 202° |
| 2026-04-28 03:22 | 23.30413 | 113.29705 | 22316 ft | 368 kts | 202° |
| 2026-04-28 03:23 | 23.28002 | 113.28793 | 21830 ft | 366 kts | 202° |
| 2026-04-28 03:23 | 23.25605 | 113.27886 | 21337 ft | 364 kts | 202° |
| 2026-04-28 03:23 | 23.23217 | 113.26982 | 20853 ft | 362 kts | 202° |
| 2026-04-28 03:23 | 23.20844 | 113.26082 | 20355 ft | 360 kts | 202° |
| 2026-04-28 03:24 | 23.18484 | 113.25183 | 19863 ft | 358 kts | 202° |
| 2026-04-28 03:24 | 23.16139 | 113.24290 | 19371 ft | 356 kts | 202° |
| 2026-04-28 03:24 | 23.13804 | 113.23399 | 18891 ft | 355 kts | 202° |
| 2026-04-28 03:24 | 23.11481 | 113.22518 | 18449 ft | 352 kts | 202° |
| 2026-04-28 03:25 | 23.09168 | 113.21642 | 17942 ft | 351 kts | 202° |
| 2026-04-28 03:25 | 23.06863 | 113.20789 | 17419 ft | 350 kts | 199° |
| 2026-04-28 03:25 | 23.04440 | 113.20539 | 16963 ft | 354 kts | 176° |
| 2026-04-28 03:25 | 23.02090 | 113.21361 | 16491 ft | 360 kts | 153° |
| 2026-04-28 03:26 | 23.00222 | 113.23184 | 15984 ft | 368 kts | 128° |
| 2026-04-28 03:26 | 22.98969 | 113.25581 | 15479 ft | 369 kts | 121° |
| 2026-04-28 03:26 | 22.97794 | 113.28057 | 14965 ft | 369 kts | 120° |
| 2026-04-28 03:26 | 22.96629 | 113.30542 | 14501 ft | 368 kts | 120° |
| 2026-04-28 03:27 | 22.95470 | 113.33012 | 14015 ft | 367 kts | 120° |
| 2026-04-28 03:27 | 22.94319 | 113.35454 | 13662 ft | 361 kts | 120° |
| 2026-04-28 03:27 | 22.93180 | 113.37855 | 12930 ft | 355 kts | 120° |
| 2026-04-28 03:27 | 22.92068 | 113.40190 | 12417 ft | 342 kts | 120° |
| 2026-04-28 03:28 | 22.90996 | 113.42439 | 11957 ft | 329 kts | 121° |
| 2026-04-28 03:28 | 22.89946 | 113.44623 | 11509 ft | 326 kts | 122° |
| 2026-04-28 03:28 | 22.88635 | 113.46586 | 11059 ft | 314 kts | 138° |
| 2026-04-28 03:28 | 22.86983 | 113.48032 | 10644 ft | 298 kts | 153° |
| 2026-04-28 03:29 | 22.85099 | 113.48962 | 10386 ft | 301 kts | 166° |
| 2026-04-28 03:29 | 22.83066 | 113.49467 | 10100 ft | 300 kts | 171° |
| 2026-04-28 03:29 | 22.81051 | 113.49919 | 9843 ft | 290 kts | 171° |
| 2026-04-28 03:29 | 22.79111 | 113.50357 | 9625 ft | 283 kts | 171° |
| 2026-04-28 03:30 | 22.77168 | 113.50791 | 9441 ft | 287 kts | 171° |
| 2026-04-28 03:30 | 22.75220 | 113.51225 | 9167 ft | 285 kts | 171° |
| 2026-04-28 03:30 | 22.73290 | 113.51657 | 8888 ft | 281 kts | 171° |
| 2026-04-28 03:30 | 22.71381 | 113.52088 | 8605 ft | 280 kts | 171° |
| 2026-04-28 03:31 | 22.69470 | 113.52519 | 8335 ft | 281 kts | 171° |
| 2026-04-28 03:31 | 22.67543 | 113.52951 | 7920 ft | 287 kts | 171° |
| 2026-04-28 03:31 | 22.65573 | 113.53390 | 7501 ft | 284 kts | 170° |
| 2026-04-28 03:31 | 22.63699 | 113.53811 | 7299 ft | 266 kts | 170° |
| 2026-04-28 03:32 | 22.61972 | 113.54201 | 7177 ft | 246 kts | 171° |
| 2026-04-28 03:32 | 22.60357 | 113.54566 | 7062 ft | 228 kts | 171° |
| 2026-04-28 03:32 | 22.58850 | 113.54907 | 6940 ft | 214 kts | 171° |
| 2026-04-28 03:32 | 22.57418 | 113.55227 | 6827 ft | 203 kts | 171° |
| 2026-04-28 03:33 | 22.56057 | 113.55528 | 6869 ft | 203 kts | 170° |
| 2026-04-28 03:33 | 22.54648 | 113.55837 | 6883 ft | 204 kts | 170° |
| 2026-04-28 03:33 | 22.53262 | 113.56144 | 6880 ft | 202 kts | 170° |
| 2026-04-28 03:33 | 22.51903 | 113.56514 | 6678 ft | 205 kts | 166° |
| 2026-04-28 03:34 | 22.50533 | 113.56951 | 6434 ft | 204 kts | 166° |
| 2026-04-28 03:34 | 22.49177 | 113.57395 | 6178 ft | 203 kts | 165° |
| 2026-04-28 03:34 | 22.47831 | 113.57838 | 5927 ft | 201 kts | 165° |
| 2026-04-28 03:34 | 22.46500 | 113.58277 | 5699 ft | 199 kts | 165° |
| 2026-04-28 03:35 | 22.45178 | 113.58710 | 5467 ft | 197 kts | 165° |
| 2026-04-28 03:35 | 22.43871 | 113.59136 | 5230 ft | 196 kts | 165° |
| 2026-04-28 03:35 | 22.42571 | 113.59557 | 5005 ft | 194 kts | 165° |
| 2026-04-28 03:35 | 22.41280 | 113.59971 | 4781 ft | 193 kts | 165° |
| 2026-04-28 03:36 | 22.39995 | 113.60382 | 4571 ft | 192 kts | 164° |
| 2026-04-28 03:36 | 22.38719 | 113.60790 | 4330 ft | 191 kts | 164° |
| 2026-04-28 03:36 | 22.37445 | 113.61197 | 4100 ft | 190 kts | 164° |
| 2026-04-28 03:36 | 22.36185 | 113.61600 | 3868 ft | 186 kts | 164° |
| 2026-04-28 03:37 | 22.34976 | 113.61988 | 3671 ft | 174 kts | 163° |
| 2026-04-28 03:37 | 22.33854 | 113.62351 | 3459 ft | 162 kts | 163° |
| 2026-04-28 03:37 | 22.32791 | 113.62695 | 3274 ft | 158 kts | 163° |
| 2026-04-28 03:37 | 22.31744 | 113.63033 | 3088 ft | 156 kts | 163° |
| 2026-04-28 03:38 | 22.30709 | 113.63368 | 2897 ft | 155 kts | 163° |
| 2026-04-28 03:38 | 22.29678 | 113.63698 | 2713 ft | 154 kts | 163° |
| 2026-04-28 03:38 | 22.28610 | 113.63790 | 2527 ft | 156 kts | 183° |
| 2026-04-28 03:38 | 22.27570 | 113.63446 | 2286 ft | 160 kts | 202° |
| 2026-04-28 03:39 | 22.26651 | 113.62754 | 2004 ft | 161 kts | 212° |
| 2026-04-28 03:39 | 22.25772 | 113.62055 | 1910 ft | 155 kts | 210° |
| 2026-04-28 03:39 | 22.24893 | 113.61382 | 1838 ft | 154 kts | 210° |
| 2026-04-28 03:39 | 22.24017 | 113.60722 | 1729 ft | 155 kts | 210° |
| 2026-04-28 03:40 | 22.23129 | 113.60059 | 1491 ft | 154 kts | 211° |
| 2026-04-28 03:40 | 22.22244 | 113.59399 | 1283 ft | 154 kts | 210° |
| 2026-04-28 03:40 | 22.21357 | 113.58738 | 1064 ft | 157 kts | 211° |
| 2026-04-28 03:40 | 22.20456 | 113.58067 | 855 ft | 158 kts | 212° |
| 2026-04-28 03:41 | 22.19526 | 113.57452 | 650 ft | 154 kts | 197° |
| 2026-04-28 03:41 | 22.18518 | 113.57438 | 433 ft | 144 kts | 154° |
| 2026-04-28 03:41 | 22.17667 | 113.57991 | 336 ft | 143 kts | 146° |
| 2026-04-28 03:41 | 22.16790 | 113.58461 | 206 ft | 134 kts | 158° |
| 2026-04-28 03:42 | 22.15945 | 113.58774 | 64 ft | 125 kts | 159° |
| 2026-04-28 03:42 | 22.15184 | 113.59055 | 31 ft | 101 kts | 161° |
| 2026-04-28 03:42 | 22.14674 | 113.59243 | 28 ft | 51 kts | 161° |
| 2026-04-28 03:42 | 22.14446 | 113.59326 | 27 ft | 30 kts | 161° |
| 2026-04-28 03:43 | 22.14256 | 113.59396 | 29 ft | 25 kts | 161° |
| 2026-04-28 03:43 | 22.14163 | 113.59381 | 29 ft | 15 kts | 240° |
| 2026-04-28 03:43 | 22.14139 | 113.59314 | 29 ft | 8 kts | 251° |
| 2026-04-28 03:43 | 22.14150 | 113.59253 | 29 ft | 10 kts | 319° |
| 2026-04-28 03:44 | 22.14253 | 113.59211 | 28 ft | 14 kts | 341° |
| 2026-04-28 03:44 | 22.14353 | 113.59174 | 28 ft | 17 kts | 341° |
| 2026-04-28 03:44 | 22.14431 | 113.59145 | 28 ft | 18 kts | 341° |
| 2026-04-28 03:44 | 22.14561 | 113.59097 | 28 ft | 21 kts | 341° |
| 2026-04-28 03:45 | 22.14701 | 113.59045 | 29 ft | 15 kts | 340° |
| 2026-04-28 03:45 | 22.14776 | 113.58958 | 29 ft | 17 kts | 303° |
| 2026-04-28 03:45 | 22.14849 | 113.58839 | 29 ft | 20 kts | 304° |
| 2026-04-28 03:45 | 22.14932 | 113.58705 | 29 ft | 23 kts | 303° |
| 2026-04-28 03:46 | 22.15026 | 113.58553 | 29 ft | 26 kts | 304° |
| 2026-04-28 03:46 | 22.15131 | 113.58384 | 29 ft | 29 kts | 303° |
| 2026-04-28 03:46 | 22.15247 | 113.58196 | 29 ft | 31 kts | 303° |
| 2026-04-28 03:46 | 22.15373 | 113.57992 | 29 ft | 33 kts | 303° |
| 2026-04-28 03:47 | 22.15507 | 113.57775 | 29 ft | 36 kts | 304° |
| 2026-04-28 03:47 | 22.15599 | 113.57625 | 29 ft | 14 kts | 303° |
| 2026-04-28 03:47 | 22.15591 | 113.57532 | 29 ft | 15 kts | 231° |
| 2026-04-28 03:47 | 22.15534 | 113.57432 | 29 ft | 12 kts | 241° |
| 2026-04-28 03:48 | 22.15503 | 113.57352 | 29 ft | 10 kts | 280° |
| 2026-04-28 03:48 | 22.15540 | 113.57327 | 29 ft | 7 kts | 333° |
| 2026-04-28 03:48 | 22.15574 | 113.57308 | 29 ft | 0 kts | 332° |